createdAt,value
2024-05-09T00:00:56.103Z,68.28
2024-05-09T00:01:56.164Z,67.73
2024-05-09T00:02:56.179Z,68.01
2024-05-09T00:03:56.991Z,67.32
2024-05-09T00:04:56.258Z,68.43
2024-05-09T00:05:56.331Z,67.61
2024-05-09T00:06:56.414Z,67.03
2024-05-09T00:07:56.509Z,68.40
2024-05-09T00:08:56.516Z,67.26
2024-05-09T00:09:56.576Z,67.62
2024-05-09T00:10:56.665Z,68.15
2024-05-09T00:11:56.764Z,66.63
2024-05-09T00:12:56.697Z,67.57
2024-05-09T00:13:56.784Z,66.48
2024-05-09T00:14:56.835Z,69.14
2024-05-09T00:15:56.828Z,65.56
2024-05-09T00:16:56.886Z,66.60
2024-05-09T00:17:57.045Z,66.18
2024-05-09T00:18:57.029Z,67.27
2024-05-09T00:19:57.028Z,66.51
2024-05-09T00:20:57.088Z,66.12
2024-05-09T00:21:57.131Z,65.71
2024-05-09T00:22:57.190Z,65.83
2024-05-09T00:23:57.245Z,66.01
2024-05-09T00:24:57.213Z,65.11
2024-05-09T00:25:57.305Z,66.48
2024-05-09T00:26:57.311Z,67.12
2024-05-09T00:27:57.359Z,66.07
2024-05-09T00:28:57.496Z,65.61
2024-05-09T00:29:57.463Z,64.87
2024-05-09T00:30:57.521Z,64.46
2024-05-09T00:31:57.683Z,65.61
2024-05-09T00:32:57.793Z,65.79
2024-05-09T00:33:58.043Z,65.83
2024-05-09T00:34:57.755Z,65.19
2024-05-09T00:35:57.769Z,63.49
2024-05-09T00:36:57.811Z,64.30
2024-05-09T00:37:57.917Z,65.12
2024-05-09T00:38:57.955Z,63.79
2024-05-09T00:39:57.982Z,65.26
2024-05-09T00:40:58.101Z,64.18
2024-05-09T00:41:58.097Z,63.48
2024-05-09T00:42:58.148Z,63.28
2024-05-09T00:43:58.335Z,63.14
2024-05-09T00:44:58.259Z,63.19
2024-05-09T00:45:58.326Z,63.02
2024-05-09T00:46:58.404Z,62.38
2024-05-09T00:47:58.705Z,61.73
2024-05-09T00:48:58.626Z,63.01
2024-05-09T00:49:58.599Z,61.62
2024-05-09T00:50:58.621Z,62.17
2024-05-09T00:51:58.658Z,62.21
2024-05-09T00:52:58.792Z,61.22
2024-05-09T00:53:58.750Z,61.55
2024-05-09T00:54:58.809Z,60.81
2024-05-09T00:55:58.929Z,61.01
2024-05-09T00:56:58.924Z,60.79
2024-05-09T00:57:58.966Z,62.08
2024-05-09T00:58:59.077Z,61.14
2024-05-09T00:59:59.065Z,59.99
2024-05-09T01:00:59.249Z,61.55
2024-05-09T01:01:59.231Z,61.12
2024-05-09T01:02:59.443Z,59.86
2024-05-09T01:03:59.426Z,61.26
2024-05-09T01:04:59.495Z,61.24
2024-05-09T01:05:59.413Z,60.58
2024-05-09T01:06:59.498Z,61.52
2024-05-09T01:07:59.553Z,60.30
2024-05-09T01:08:59.573Z,61.23
2024-05-09T01:09:59.610Z,59.64
2024-05-09T01:10:59.721Z,58.14
2024-05-09T01:11:59.841Z,60.68
2024-05-09T01:12:59.783Z,60.44
2024-05-09T01:13:59.886Z,59.46
2024-05-09T01:14:59.886Z,59.10
2024-05-09T01:15:59.966Z,60.90
2024-05-09T01:17:00.089Z,58.03
2024-05-09T01:18:00.217Z,58.84
2024-05-09T01:19:00.234Z,59.08
2024-05-09T01:20:00.282Z,58.34
2024-05-09T01:21:00.275Z,59.13
2024-05-09T01:22:00.312Z,59.18
2024-05-09T01:23:00.425Z,59.94
2024-05-09T01:24:00.448Z,58.42
2024-05-09T01:25:00.487Z,58.91
2024-05-09T01:26:00.649Z,58.81
2024-05-09T01:27:00.633Z,57.37
2024-05-09T01:28:00.683Z,57.13
2024-05-09T01:29:00.757Z,56.82
2024-05-09T01:30:00.771Z,57.12
2024-05-09T01:31:00.842Z,58.08
2024-05-09T01:32:01.016Z,58.35
2024-05-09T01:33:01.457Z,57.62
2024-05-09T01:34:01.159Z,55.85
2024-05-09T01:35:01.254Z,59.10
2024-05-09T01:36:01.155Z,58.32
2024-05-09T01:37:01.188Z,58.52
2024-05-09T01:38:01.353Z,58.26
2024-05-09T01:39:01.280Z,57.36
2024-05-09T01:40:01.351Z,58.93
2024-05-09T01:41:01.417Z,57.38
2024-05-09T01:42:01.480Z,57.14
2024-05-09T01:43:01.512Z,56.49
2024-05-09T01:44:01.638Z,58.70
2024-05-09T01:45:01.650Z,57.57
2024-05-09T01:46:01.702Z,58.06
2024-05-09T01:47:01.801Z,56.57
2024-05-09T01:48:02.678Z,56.50
2024-05-09T01:49:01.984Z,57.48
2024-05-09T01:50:02.000Z,56.71
2024-05-09T01:51:02.048Z,58.73
2024-05-09T01:52:02.033Z,56.69
2024-05-09T01:53:02.114Z,57.63
2024-05-09T01:54:02.136Z,56.44
2024-05-09T01:55:05.760Z,58.12
2024-05-09T01:56:02.232Z,58.15
2024-05-09T01:57:02.209Z,58.38
2024-05-09T01:58:02.203Z,58.24
2024-05-09T01:59:02.274Z,58.60
2024-05-09T02:00:02.201Z,56.73
2024-05-09T02:01:02.326Z,59.02
2024-05-09T02:02:02.440Z,56.99
2024-05-09T02:03:02.509Z,57.70
2024-05-09T02:04:02.645Z,57.59
2024-05-09T02:05:02.269Z,58.11
2024-05-09T02:06:02.363Z,58.42
2024-05-09T02:07:02.226Z,56.95
2024-05-09T02:08:02.292Z,59.56
2024-05-09T02:09:02.231Z,57.38
2024-05-09T02:10:06.463Z,56.97
2024-05-09T02:11:03.427Z,57.08
2024-05-09T02:12:02.404Z,57.26
2024-05-09T02:13:02.233Z,57.34
2024-05-09T02:14:02.295Z,57.46
2024-05-09T02:15:02.226Z,58.40
2024-05-09T02:16:02.263Z,58.36
2024-05-09T02:17:02.387Z,57.62
2024-05-09T02:18:02.414Z,57.52
2024-05-09T02:19:02.365Z,58.31
2024-05-09T02:20:02.729Z,57.01
2024-05-09T02:21:02.401Z,56.52
2024-05-09T02:22:02.299Z,57.25
2024-05-09T02:23:02.390Z,57.49
2024-05-09T02:24:02.430Z,56.17
2024-05-09T02:25:02.445Z,56.79
2024-05-09T02:26:02.637Z,56.22
2024-05-09T02:27:02.594Z,56.43
2024-05-09T02:28:02.686Z,56.43
2024-05-09T02:29:02.759Z,56.65
2024-05-09T02:30:03.525Z,56.37
2024-05-09T02:31:02.822Z,56.73
2024-05-09T02:32:02.897Z,55.58
2024-05-09T02:33:03.183Z,55.94
2024-05-09T02:34:03.337Z,55.90
2024-05-09T02:35:03.182Z,56.04
2024-05-09T02:36:03.089Z,55.12
2024-05-09T02:37:03.159Z,55.63
2024-05-09T02:38:03.380Z,56.55
2024-05-09T02:39:03.270Z,57.60
2024-05-09T02:40:03.439Z,56.09
2024-05-09T02:41:03.447Z,57.52
2024-05-09T02:42:03.469Z,56.87
2024-05-09T02:43:03.546Z,56.06
2024-05-09T02:44:03.654Z,56.28
2024-05-09T02:45:03.647Z,56.51
2024-05-09T02:46:03.694Z,56.33
2024-05-09T02:47:03.834Z,55.91
2024-05-09T02:48:04.145Z,54.75
2024-05-09T02:49:04.072Z,55.99
2024-05-09T02:50:05.964Z,56.18
2024-05-09T02:51:04.078Z,57.74
2024-05-09T02:52:04.096Z,56.99
2024-05-09T02:53:04.314Z,56.58
2024-05-09T02:54:04.210Z,55.54
2024-05-09T02:55:04.269Z,54.82
2024-05-09T02:56:04.399Z,54.83
2024-05-09T02:57:04.401Z,55.62
2024-05-09T02:58:04.438Z,54.44
2024-05-09T02:59:04.565Z,57.18
2024-05-09T03:00:06.123Z,55.34
2024-05-09T03:01:04.642Z,56.17
2024-05-09T03:02:04.684Z,55.81
2024-05-09T03:03:04.752Z,53.51
2024-05-09T03:04:04.713Z,55.52
2024-05-09T03:05:04.653Z,55.10
2024-05-09T03:06:04.599Z,55.79
2024-05-09T03:07:04.624Z,55.42
2024-05-09T03:08:04.894Z,53.78
2024-05-09T03:09:04.587Z,56.35
2024-05-09T03:10:07.390Z,55.06
2024-05-09T03:11:05.675Z,55.21
2024-05-09T03:12:04.701Z,55.50
2024-05-09T03:13:04.595Z,56.28
2024-05-09T03:14:04.608Z,55.37
2024-05-09T03:15:04.599Z,56.89
2024-05-09T03:16:04.612Z,55.31
2024-05-09T03:17:04.638Z,55.80
2024-05-09T03:18:04.956Z,55.89
2024-05-09T03:19:04.870Z,56.13
2024-05-09T03:20:06.979Z,55.39
2024-05-09T03:21:05.690Z,55.51
2024-05-09T03:22:04.617Z,55.79
2024-05-09T03:23:05.222Z,56.60
2024-05-09T03:24:04.609Z,55.75
2024-05-09T03:25:04.597Z,56.90
2024-05-09T03:26:04.689Z,54.82
2024-05-09T03:27:04.626Z,54.44
2024-05-09T03:28:04.594Z,56.38
2024-05-09T03:29:04.770Z,56.33
2024-05-09T03:30:07.309Z,54.48
2024-05-09T03:31:04.630Z,55.92
2024-05-09T03:32:04.750Z,55.03
2024-05-09T03:33:04.862Z,56.42
2024-05-09T03:34:04.991Z,56.63
2024-05-09T03:35:04.678Z,58.12
2024-05-09T03:36:06.827Z,54.77
2024-05-09T03:37:04.660Z,54.89
2024-05-09T03:38:04.724Z,55.02
2024-05-09T03:39:04.629Z,55.30
2024-05-09T03:40:09.178Z,54.84
2024-05-09T03:41:05.670Z,54.92
2024-05-09T03:42:04.636Z,55.42
2024-05-09T03:43:04.653Z,55.81
2024-05-09T03:44:04.693Z,55.90
2024-05-09T03:45:04.665Z,56.53
2024-05-09T03:46:04.685Z,54.22
2024-05-09T03:47:04.679Z,57.28
2024-05-09T03:48:04.810Z,55.75
2024-05-09T03:49:04.766Z,55.72
2024-05-09T03:50:05.809Z,54.20
2024-05-09T03:51:04.821Z,55.22
2024-05-09T03:52:04.703Z,54.66
2024-05-09T03:53:04.779Z,56.12
2024-05-09T03:54:04.742Z,55.09
2024-05-09T03:55:04.686Z,54.44
2024-05-09T03:56:04.748Z,54.30
2024-05-09T03:57:04.678Z,54.03
2024-05-09T03:58:04.744Z,53.52
2024-05-09T03:59:04.714Z,52.89
2024-05-09T04:00:07.421Z,51.72
2024-05-09T04:01:05.705Z,51.94
2024-05-09T04:02:04.794Z,52.55
2024-05-09T04:03:05.540Z,52.98
2024-05-09T04:04:04.766Z,52.93
2024-05-09T04:05:04.746Z,55.14
2024-05-09T04:06:04.695Z,56.33
2024-05-09T04:07:04.685Z,55.28
2024-05-09T04:08:04.855Z,54.33
2024-05-09T04:09:04.724Z,54.21
2024-05-09T04:10:06.805Z,54.08
2024-05-09T04:11:04.828Z,54.12
2024-05-09T04:12:04.934Z,54.13
2024-05-09T04:13:04.758Z,54.21
2024-05-09T04:14:04.820Z,54.01
2024-05-09T04:15:04.727Z,53.14
2024-05-09T04:16:04.732Z,53.77
2024-05-09T04:17:04.718Z,53.47
2024-05-09T04:18:04.928Z,54.77
2024-05-09T04:19:04.854Z,51.93
2024-05-09T04:20:06.568Z,54.66
2024-05-09T04:21:05.076Z,53.82
2024-05-09T04:22:04.728Z,54.51
2024-05-09T04:23:04.761Z,54.78
2024-05-09T04:24:04.744Z,52.63
2024-05-09T04:25:04.733Z,53.19
2024-05-09T04:26:04.993Z,53.06
2024-05-09T04:27:04.732Z,52.13
2024-05-09T04:28:04.760Z,51.83
2024-05-09T04:29:04.780Z,52.12
2024-05-09T04:30:06.203Z,51.94
2024-05-09T04:31:04.747Z,52.07
2024-05-09T04:32:04.855Z,52.30
2024-05-09T04:33:04.895Z,52.21
2024-05-09T04:34:04.855Z,52.64
2024-05-09T04:35:12.209Z,50.00
2024-05-09T04:36:12.190Z,50.00
2024-05-09T04:37:12.272Z,50.00
2024-05-09T04:38:12.341Z,50.00
2024-05-09T04:39:12.214Z,50.00
2024-05-09T04:40:24.003Z,50.90
2024-05-09T04:41:13.258Z,50.95
2024-05-09T04:42:12.233Z,51.09
2024-05-09T04:43:12.225Z,49.42
2024-05-09T04:44:12.301Z,48.66
2024-05-09T04:45:12.202Z,48.15
2024-05-09T04:46:12.190Z,50.32
2024-05-09T04:47:12.331Z,50.00
2024-05-09T04:48:12.490Z,50.35
2024-05-09T04:49:12.322Z,51.71
2024-05-09T04:50:21.140Z,51.82
2024-05-09T04:51:13.314Z,51.88
2024-05-09T04:52:12.289Z,51.88
2024-05-09T04:53:12.352Z,51.58
2024-05-09T04:54:25.763Z,50.65
2024-05-09T04:55:13.270Z,51.86
2024-05-09T04:56:12.354Z,51.97
2024-05-09T04:57:12.306Z,50.11
2024-05-09T04:58:12.415Z,50.39
2024-05-09T04:59:12.375Z,49.97
2024-05-09T05:00:14.972Z,53.59
2024-05-09T05:01:13.331Z,53.65
2024-05-09T05:02:12.393Z,53.91
2024-05-09T05:03:14.875Z,52.20
2024-05-09T05:04:12.379Z,53.53
2024-05-09T05:05:12.443Z,53.61
2024-05-09T05:06:12.275Z,52.84
2024-05-09T05:07:12.320Z,51.24
2024-05-09T05:08:12.778Z,52.29
2024-05-09T05:09:12.313Z,50.82
2024-05-09T05:10:21.330Z,52.62
2024-05-09T05:11:13.604Z,52.74
2024-05-09T05:12:12.529Z,52.96
2024-05-09T05:13:12.342Z,52.88
2024-05-09T05:14:12.352Z,52.44
2024-05-09T05:15:12.321Z,52.20
2024-05-09T05:16:12.301Z,51.98
2024-05-09T05:17:12.393Z,52.58
2024-05-09T05:18:12.373Z,52.07
2024-05-09T05:19:16.020Z,50.00
2024-05-09T05:20:17.870Z,50.23
2024-05-09T05:21:13.368Z,50.35
2024-05-09T05:22:12.321Z,51.15
2024-05-09T05:23:12.473Z,52.76
2024-05-09T05:24:12.339Z,53.22
2024-05-09T05:25:12.317Z,55.82
2024-05-09T05:26:12.399Z,54.62
2024-05-09T05:27:12.360Z,55.08
2024-05-09T05:28:12.351Z,53.72
2024-05-09T05:29:12.490Z,53.62
2024-05-09T05:30:21.009Z,55.21
2024-05-09T05:31:13.511Z,55.26
2024-05-09T05:32:12.513Z,55.26
2024-05-09T05:33:12.697Z,54.36
2024-05-09T05:34:12.354Z,52.70
2024-05-09T05:35:12.379Z,54.28
2024-05-09T05:36:12.343Z,52.51
2024-05-09T05:37:12.335Z,50.63
2024-05-09T05:38:12.849Z,54.43
2024-05-09T05:39:12.353Z,52.83
2024-05-09T05:40:20.923Z,52.80
2024-05-09T05:41:13.495Z,52.93
2024-05-09T05:42:12.367Z,53.22
2024-05-09T05:43:12.347Z,53.60
2024-05-09T05:44:12.392Z,52.20
2024-05-09T05:45:12.369Z,52.57
2024-05-09T05:46:12.376Z,50.85
2024-05-09T05:47:12.516Z,51.14
2024-05-09T05:48:12.519Z,51.26
2024-05-09T05:49:12.556Z,50.20
2024-05-09T05:50:23.626Z,50.36
2024-05-09T05:51:13.631Z,50.53
2024-05-09T05:52:12.421Z,50.84
2024-05-09T05:53:12.413Z,50.69
2024-05-09T05:54:12.392Z,50.49
2024-05-09T05:55:12.382Z,50.32
2024-05-09T05:56:12.464Z,50.48
2024-05-09T05:57:12.375Z,49.92
2024-05-09T05:58:12.486Z,52.52
2024-05-09T05:59:15.029Z,52.00
2024-05-09T06:01:12.489Z,50.56
2024-05-09T06:02:12.625Z,48.62
2024-05-09T06:03:13.050Z,45.50
2024-05-09T06:04:12.625Z,43.46
2024-05-09T06:05:12.656Z,41.38
2024-05-09T06:06:12.686Z,51.21
2024-05-09T06:07:12.718Z,50.29
2024-05-09T06:08:12.923Z,52.39
2024-05-09T06:09:12.858Z,52.73
2024-05-09T06:10:17.679Z,55.73
2024-05-09T06:11:14.088Z,55.76
2024-05-09T06:12:13.130Z,55.76
2024-05-09T06:13:13.734Z,54.14
2024-05-09T06:14:13.126Z,55.34
2024-05-09T06:15:12.956Z,55.21
2024-05-09T06:16:12.940Z,55.57
2024-05-09T06:17:13.117Z,56.86
2024-05-09T06:18:13.386Z,55.92
2024-05-09T06:19:13.076Z,58.25
2024-05-09T06:20:20.269Z,57.30
2024-05-09T06:21:14.300Z,57.40
2024-05-09T06:22:13.066Z,57.64
2024-05-09T06:23:13.568Z,57.74
2024-05-09T06:24:13.081Z,57.81
2024-05-09T06:25:13.065Z,59.01
2024-05-09T06:26:13.128Z,58.63
2024-05-09T06:27:13.083Z,57.15
2024-05-09T06:28:13.131Z,56.78
2024-05-09T06:29:13.243Z,59.07
2024-05-09T06:30:24.882Z,59.09
2024-05-09T06:31:14.248Z,59.17
2024-05-09T06:32:13.327Z,59.23
2024-05-09T06:33:15.492Z,59.18
2024-05-09T06:34:13.475Z,60.72
2024-05-09T06:35:13.302Z,61.01
2024-05-09T06:36:13.281Z,60.10
2024-05-09T06:37:13.271Z,59.88
2024-05-09T06:38:13.369Z,57.97
2024-05-09T06:39:13.262Z,59.34
2024-05-09T06:40:17.409Z,56.72
2024-05-09T06:41:13.309Z,56.99
2024-05-09T06:42:13.273Z,57.26
2024-05-09T06:43:13.460Z,56.95
2024-05-09T06:44:13.326Z,57.39
2024-05-09T06:45:13.276Z,56.31
2024-05-09T06:46:13.278Z,56.02
2024-05-09T06:47:13.357Z,55.36
2024-05-09T06:48:13.498Z,52.92
2024-05-09T06:49:13.451Z,50.23
2024-05-09T06:50:20.441Z,50.00
2024-05-09T06:51:14.342Z,50.14
2024-05-09T06:52:13.291Z,49.84
2024-05-09T06:53:13.329Z,48.39
2024-05-09T06:54:13.278Z,47.35
2024-05-09T06:55:13.292Z,45.87
2024-05-09T06:56:13.365Z,51.47
2024-05-09T06:57:13.287Z,50.54
2024-05-09T06:58:13.285Z,51.52
2024-05-09T06:59:13.344Z,51.08
2024-05-09T07:01:13.335Z,51.78
2024-05-09T07:02:13.341Z,55.28
2024-05-09T07:03:15.676Z,55.10
2024-05-09T07:04:13.528Z,55.23
2024-05-09T07:05:13.471Z,55.64
2024-05-09T07:06:13.344Z,56.38
2024-05-09T07:07:13.308Z,57.00
2024-05-09T07:08:13.526Z,59.88
2024-05-09T07:09:13.313Z,58.72
2024-05-09T07:10:21.532Z,58.83
2024-05-09T07:11:14.541Z,58.98
2024-05-09T07:12:13.486Z,59.31
2024-05-09T07:13:13.680Z,59.91
2024-05-09T07:14:13.362Z,60.27
2024-05-09T07:15:13.344Z,62.21
2024-05-09T07:16:13.323Z,62.16
2024-05-09T07:17:13.443Z,62.16
2024-05-09T07:18:13.975Z,64.24
2024-05-09T07:19:13.535Z,61.38
2024-05-09T07:20:19.983Z,63.30
2024-05-09T07:21:14.677Z,63.38
2024-05-09T07:22:13.341Z,63.29
2024-05-09T07:23:13.541Z,62.52
2024-05-09T07:24:13.337Z,63.45
2024-05-09T07:25:13.395Z,62.59
2024-05-09T07:26:13.529Z,62.37
2024-05-09T07:27:13.362Z,63.57
2024-05-09T07:28:13.428Z,63.59
2024-05-09T07:29:13.391Z,63.21
2024-05-09T07:31:13.360Z,63.72
2024-05-09T07:32:13.587Z,64.89
2024-05-09T07:33:13.447Z,62.60
2024-05-09T07:34:13.661Z,64.13
2024-05-09T07:35:13.396Z,63.52
2024-05-09T07:36:13.419Z,63.69
2024-05-09T07:37:13.455Z,64.64
2024-05-09T07:38:13.619Z,65.26
2024-05-09T07:39:13.513Z,64.42
2024-05-09T07:40:21.351Z,65.19
2024-05-09T07:41:14.775Z,65.27
2024-05-09T07:42:13.541Z,65.23
2024-05-09T07:43:13.568Z,64.58
2024-05-09T07:44:13.689Z,66.40
2024-05-09T07:47:13.720Z,65.44
2024-05-09T07:48:28.741Z,65.56
2024-05-09T07:49:45.110Z,65.67
2024-05-09T07:53:29.608Z,65.95
2024-05-09T07:53:37.764Z,66.07
2024-05-09T07:54:15.087Z,65.99
2024-05-09T07:55:13.799Z,66.02
2024-05-09T07:56:14.116Z,67.59
2024-05-09T07:57:13.859Z,69.46
2024-05-09T07:58:13.714Z,71.37
2024-05-09T07:59:13.694Z,74.69
2024-05-09T08:00:17.336Z,72.82
2024-05-09T08:01:15.036Z,73.05
2024-05-09T08:02:13.851Z,73.42
2024-05-09T08:03:14.023Z,73.45
2024-05-09T08:04:13.820Z,73.51
2024-05-09T08:05:13.764Z,74.15
2024-05-09T08:06:13.747Z,75.30
2024-05-09T08:07:13.901Z,72.24
2024-05-09T08:08:13.709Z,71.72
2024-05-09T08:09:17.060Z,69.87
2024-05-09T08:10:19.132Z,70.09
2024-05-09T08:11:14.768Z,70.18
2024-05-09T08:12:13.715Z,70.90
2024-05-09T08:13:13.792Z,72.32
2024-05-09T08:14:13.705Z,72.57
2024-05-09T08:15:13.725Z,73.91
2024-05-09T08:16:13.932Z,72.61
2024-05-09T08:17:13.747Z,71.53
2024-05-09T08:18:13.836Z,71.64
2024-05-09T08:19:13.822Z,72.31
2024-05-09T08:20:22.834Z,72.82
2024-05-09T08:21:14.742Z,72.98
2024-05-09T08:22:13.855Z,73.05
2024-05-09T08:23:13.723Z,73.41
2024-05-09T08:24:13.732Z,70.60
2024-05-09T08:25:14.400Z,70.82
2024-05-09T08:26:13.724Z,69.03
2024-05-09T08:27:13.731Z,67.62
2024-05-09T08:28:14.043Z,70.84
2024-05-09T08:29:13.761Z,70.48
2024-05-09T08:30:21.832Z,68.79
2024-05-09T08:31:14.982Z,68.94
2024-05-09T08:32:13.860Z,69.12
2024-05-09T08:33:13.932Z,70.28
2024-05-09T08:34:13.891Z,70.08
2024-05-09T08:35:13.765Z,69.49
2024-05-09T08:36:13.756Z,70.12
2024-05-09T08:38:13.973Z,66.91
2024-05-09T08:39:13.746Z,69.83
2024-05-09T08:40:23.639Z,70.03
2024-05-09T08:41:14.813Z,70.10
2024-05-09T08:42:13.759Z,70.04
2024-05-09T08:43:13.878Z,70.71
2024-05-09T08:44:13.756Z,70.77
2024-05-09T08:45:13.762Z,70.77
2024-05-09T08:46:13.878Z,69.78
2024-05-09T08:47:13.771Z,70.01
2024-05-09T08:48:15.215Z,68.63
2024-05-09T08:49:14.009Z,70.14
2024-05-09T08:50:28.419Z,73.65
2024-05-09T08:51:14.902Z,73.67
2024-05-09T08:52:13.930Z,70.88
2024-05-09T08:53:13.895Z,73.75
2024-05-09T08:54:13.865Z,71.92
2024-05-09T08:55:13.998Z,71.78
2024-05-09T08:56:13.877Z,69.43
2024-05-09T08:57:13.887Z,68.87
2024-05-09T08:58:14.263Z,71.81
2024-05-09T08:59:13.886Z,67.48
2024-05-09T09:00:18.166Z,68.03
2024-05-09T09:01:15.037Z,68.14
2024-05-09T09:02:14.215Z,68.28
2024-05-09T09:03:13.968Z,68.64
2024-05-09T09:04:14.130Z,70.13
2024-05-09T09:05:14.001Z,70.46
2024-05-09T09:06:13.922Z,67.92
2024-05-09T09:07:13.944Z,66.79
2024-05-09T09:08:13.887Z,69.48
2024-05-09T09:09:13.902Z,65.25
2024-05-09T09:10:21.118Z,65.65
2024-05-09T09:11:14.988Z,65.85
2024-05-09T09:12:13.917Z,65.88
2024-05-09T09:13:14.198Z,64.01
2024-05-09T09:14:13.939Z,63.66
2024-05-09T09:15:13.920Z,64.94
2024-05-09T09:16:14.004Z,63.84
2024-05-09T09:17:13.963Z,66.65
2024-05-09T09:18:14.036Z,64.08
2024-05-09T09:19:14.060Z,61.21
2024-05-09T09:20:16.725Z,61.59
2024-05-09T09:21:14.938Z,61.74
2024-05-09T09:22:14.485Z,61.59
2024-05-09T09:23:13.956Z,60.46
2024-05-09T09:24:13.956Z,61.40
2024-05-09T09:25:14.008Z,59.88
2024-05-09T09:26:13.965Z,59.59
2024-05-09T09:27:13.964Z,59.95
2024-05-09T09:28:14.006Z,56.49
2024-05-09T09:29:13.958Z,55.19
2024-05-09T09:30:27.695Z,57.54
2024-05-09T09:31:14.976Z,57.67
2024-05-09T09:32:13.970Z,57.85
2024-05-09T09:33:14.231Z,57.76
2024-05-09T09:34:14.139Z,55.52
2024-05-09T09:35:13.973Z,57.76
2024-05-09T09:36:13.983Z,54.94
2024-05-09T09:37:14.019Z,54.15
2024-05-09T09:38:13.996Z,52.03
2024-05-09T09:39:13.964Z,54.87
2024-05-09T09:40:15.606Z,56.10
2024-05-09T09:41:14.002Z,56.15
2024-05-09T09:42:13.994Z,55.10
2024-05-09T09:43:14.190Z,55.20
2024-05-09T09:44:14.000Z,52.09
2024-05-09T09:45:13.999Z,53.07
2024-05-09T09:46:14.131Z,52.57
2024-05-09T09:47:14.085Z,51.10
2024-05-09T09:48:14.079Z,51.24
2024-05-09T09:49:14.089Z,50.98
2024-05-09T09:50:17.023Z,50.48
2024-05-09T09:51:15.007Z,50.69
2024-05-09T09:52:14.110Z,50.68
2024-05-09T09:53:14.002Z,51.47
2024-05-09T09:54:14.014Z,51.12
2024-05-09T09:55:14.125Z,54.00
2024-05-09T09:56:14.034Z,52.25
2024-05-09T09:57:14.009Z,52.74
2024-05-09T09:58:14.645Z,51.64
2024-05-09T09:59:14.000Z,53.70
2024-05-09T10:00:20.704Z,52.73
2024-05-09T10:01:15.093Z,52.85
2024-05-09T10:02:14.226Z,53.02
2024-05-09T10:03:14.067Z,54.48
2024-05-09T10:04:14.079Z,53.88
2024-05-09T10:05:14.167Z,52.21
2024-05-09T10:06:14.031Z,54.07
2024-05-09T10:07:14.049Z,54.01
2024-05-09T10:08:14.063Z,53.19
2024-05-09T10:09:14.039Z,51.35
2024-05-09T10:10:16.407Z,52.72
2024-05-09T10:11:15.075Z,52.78
2024-05-09T10:12:14.067Z,53.02
2024-05-09T10:13:14.094Z,50.56
2024-05-09T10:14:14.021Z,51.38
2024-05-09T10:15:14.043Z,51.95
2024-05-09T10:16:14.119Z,51.43
2024-05-09T10:17:14.114Z,53.34
2024-05-09T10:18:14.349Z,51.65
2024-05-09T10:19:14.113Z,50.97
2024-05-09T10:20:21.407Z,51.22
2024-05-09T10:21:15.063Z,51.35
2024-05-09T10:22:14.207Z,51.52
2024-05-09T10:23:14.049Z,51.40
2024-05-09T10:24:14.046Z,51.99
2024-05-09T10:25:14.148Z,51.75
2024-05-09T10:26:14.060Z,53.73
2024-05-09T10:27:14.086Z,50.79
2024-05-09T10:28:14.210Z,50.08
2024-05-09T10:29:14.067Z,53.81
2024-05-09T10:30:21.267Z,54.94
2024-05-09T10:31:15.582Z,55.00
2024-05-09T10:32:14.065Z,53.11
2024-05-09T10:33:14.155Z,54.77
2024-05-09T10:34:14.147Z,55.05
2024-05-09T10:35:14.070Z,52.84
2024-05-09T10:36:14.063Z,50.84
2024-05-09T10:37:14.211Z,50.96
2024-05-09T10:38:14.092Z,51.25
2024-05-09T10:39:14.084Z,51.14
2024-05-09T10:40:20.310Z,50.52
2024-05-09T10:41:15.162Z,50.58
2024-05-09T10:42:14.073Z,49.78
2024-05-09T10:43:14.250Z,48.34
2024-05-09T10:44:14.109Z,46.39
2024-05-09T10:45:14.083Z,44.54
2024-05-09T10:46:14.227Z,50.96
2024-05-09T10:47:14.129Z,53.24
2024-05-09T10:48:14.190Z,52.38
2024-05-09T10:49:14.242Z,52.04
2024-05-09T10:50:22.252Z,53.86
2024-05-09T10:51:15.098Z,53.94
2024-05-09T10:52:14.206Z,53.19
2024-05-09T10:53:14.125Z,50.68
2024-05-09T10:54:14.108Z,52.63
2024-05-09T10:55:14.179Z,52.51
2024-05-09T10:56:14.289Z,51.37
2024-05-09T10:57:14.101Z,54.17
2024-05-09T10:58:14.237Z,52.42
2024-05-09T10:59:14.140Z,51.74
2024-05-09T11:00:23.220Z,51.69
2024-05-09T11:01:15.207Z,51.17
2024-05-09T11:02:14.197Z,46.96
2024-05-09T11:03:14.205Z,45.46
2024-05-09T11:04:14.531Z,45.58
2024-05-09T11:05:14.393Z,49.83
2024-05-09T11:06:14.108Z,49.52
2024-05-09T11:07:14.203Z,50.00
2024-05-09T11:08:14.135Z,58.05
2024-05-09T11:09:14.122Z,51.55
2024-05-09T11:10:17.925Z,52.27
2024-05-09T11:11:15.175Z,52.47
2024-05-09T11:12:14.270Z,53.14
2024-05-09T11:13:14.296Z,51.81
2024-05-09T11:14:14.150Z,50.43
2024-05-09T11:15:14.145Z,51.29
2024-05-09T11:16:14.340Z,50.46
2024-05-09T11:17:14.205Z,54.46
2024-05-09T11:18:14.343Z,51.40
2024-05-09T11:19:14.519Z,54.13
2024-05-09T11:20:22.587Z,52.24
2024-05-09T11:21:15.159Z,52.38
2024-05-09T11:22:14.309Z,52.49
2024-05-09T11:23:14.162Z,52.56
2024-05-09T11:24:14.157Z,46.90
2024-05-09T11:25:14.273Z,47.03
2024-05-09T11:26:14.161Z,52.00
2024-05-09T11:27:14.171Z,50.86
2024-05-09T11:28:14.233Z,50.66
2024-05-09T11:29:17.068Z,51.43
2024-05-09T11:30:20.891Z,51.64
2024-05-09T11:31:15.292Z,51.61
2024-05-09T11:32:14.251Z,51.60
2024-05-09T11:33:14.295Z,48.89
2024-05-09T11:34:14.237Z,42.82
2024-05-09T11:35:14.219Z,42.20
2024-05-09T11:36:14.187Z,50.86
2024-05-09T11:37:14.338Z,52.04
2024-05-09T11:38:14.199Z,52.83
2024-05-09T11:39:14.178Z,51.90
2024-05-09T11:40:21.421Z,50.86
2024-05-09T11:41:15.172Z,51.05
2024-05-09T11:42:14.224Z,51.19
2024-05-09T11:44:14.208Z,49.55
2024-05-09T11:45:14.197Z,50.45
2024-05-09T11:46:14.474Z,52.39
2024-05-09T11:47:14.221Z,53.02
2024-05-09T11:48:14.312Z,51.75
2024-05-09T11:49:14.363Z,50.98
2024-05-09T11:50:22.475Z,52.93
2024-05-09T11:51:15.195Z,52.96
2024-05-09T11:52:14.280Z,53.07
2024-05-09T11:53:14.234Z,52.97
2024-05-09T11:54:14.230Z,48.90
2024-05-09T11:55:14.458Z,45.16
2024-05-09T11:56:14.221Z,51.98
2024-05-09T11:57:14.232Z,52.18
2024-05-09T11:58:14.443Z,51.39
2024-05-09T11:59:14.217Z,53.07
2024-05-09T12:00:20.743Z,51.73
2024-05-09T12:01:15.324Z,51.83
2024-05-09T12:02:14.416Z,48.45
2024-05-09T12:03:14.416Z,48.47
2024-05-09T12:04:14.512Z,47.22
2024-05-09T12:05:14.257Z,48.45
2024-05-09T12:06:14.261Z,51.25
2024-05-09T12:07:14.326Z,50.00
2024-05-09T12:08:14.324Z,55.28
2024-05-09T12:09:14.224Z,51.33
2024-05-09T12:10:19.719Z,51.30
2024-05-09T12:11:15.381Z,51.46
2024-05-09T12:12:14.224Z,51.13
2024-05-09T12:13:14.303Z,51.36
2024-05-09T12:14:14.256Z,50.04
2024-05-09T12:15:14.237Z,48.71
2024-05-09T12:16:14.400Z,52.14
2024-05-09T12:17:14.330Z,52.74
2024-05-09T12:18:14.289Z,54.99
2024-05-09T12:19:14.319Z,52.00
2024-05-09T12:20:21.375Z,56.26
2024-05-09T12:21:15.259Z,56.39
2024-05-09T12:22:14.376Z,56.34
2024-05-09T12:23:14.267Z,57.53
2024-05-09T12:24:17.753Z,58.41
2024-05-09T12:25:14.448Z,56.32
2024-05-09T12:26:14.256Z,57.25
2024-05-09T12:27:14.257Z,57.84
2024-05-09T12:28:14.350Z,59.12
2024-05-09T12:29:14.265Z,59.04
2024-05-09T12:30:20.818Z,61.12
2024-05-09T12:31:15.400Z,61.24
2024-05-09T12:32:14.333Z,61.44
2024-05-09T12:33:14.499Z,57.83
2024-05-09T12:34:14.401Z,56.34
2024-05-09T12:35:14.278Z,55.26
2024-05-09T12:36:14.306Z,55.82
2024-05-09T12:37:14.336Z,57.32
2024-05-09T12:38:14.290Z,59.27
2024-05-09T12:39:14.291Z,55.11
2024-05-09T12:40:22.835Z,54.96
2024-05-09T12:41:15.305Z,55.09
2024-05-09T12:42:26.313Z,55.36
2024-05-09T12:43:15.321Z,55.19
2024-05-09T12:44:14.309Z,55.65
2024-05-09T12:45:14.292Z,56.63
2024-05-09T12:46:14.408Z,56.83
2024-05-09T12:47:14.378Z,58.30
2024-05-09T12:48:14.440Z,58.51
2024-05-09T12:49:17.257Z,57.97
2024-05-09T12:50:22.296Z,58.09
2024-05-09T12:51:15.308Z,58.18
2024-05-09T12:52:14.317Z,58.46
2024-05-09T12:53:14.304Z,57.91
2024-05-09T12:54:14.316Z,58.99
2024-05-09T12:55:14.526Z,57.55
2024-05-09T12:56:14.337Z,58.93
2024-05-09T12:57:14.327Z,59.63
2024-05-09T12:58:14.465Z,60.61
2024-05-09T12:59:14.375Z,58.77
2024-05-09T13:00:23.431Z,58.75
2024-05-09T13:01:15.447Z,58.85
2024-05-09T13:02:14.541Z,59.07